sensor_id;sensor_type;location;lat;lon;timestamp;temperature;humidity
17202;DHT22;8717;53.588;10.176;2023-12-29T00:00:13;9.60;99.90
17202;DHT22;8717;53.588;10.176;2023-12-29T00:02:40;9.50;99.90
17202;DHT22;8717;53.588;10.176;2023-12-29T00:05:07;9.50;99.90
17202;DHT22;8717;53.588;10.176;2023-12-29T00:07:34;9.50;99.90
17202;DHT22;8717;53.588;10.176;2023-12-29T00:10:01;9.50;99.90
17202;DHT22;8717;53.588;10.176;2023-12-29T00:12:28;9.50;99.90
17202;DHT22;8717;53.588;10.176;2023-12-29T00:14:55;9.40;99.90
17202;DHT22;8717;53.588;10.176;2023-12-29T00:17:23;9.30;99.90
17202;DHT22;8717;53.588;10.176;2023-12-29T00:19:50;9.20;99.90
17202;DHT22;8717;53.588;10.176;2023-12-29T00:22:16;9.10;99.90
17202;DHT22;8717;53.588;10.176;2023-12-29T00:24:43;9.00;99.90
17202;DHT22;8717;53.588;10.176;2023-12-29T00:27:10;8.90;99.90
17202;DHT22;8717;53.588;10.176;2023-12-29T00:29:37;8.80;99.90
17202;DHT22;8717;53.588;10.176;2023-12-29T00:32:05;8.70;99.90
17202;DHT22;8717;53.588;10.176;2023-12-29T00:34:33;8.60;99.90
17202;DHT22;8717;53.588;10.176;2023-12-29T00:37:00;8.50;99.90
17202;DHT22;8717;53.588;10.176;2023-12-29T00:39:27;8.50;99.90
17202;DHT22;8717;53.588;10.176;2023-12-29T00:41:56;8.40;99.90
17202;DHT22;8717;53.588;10.176;2023-12-29T00:44:23;8.30;99.90
17202;DHT22;8717;53.588;10.176;2023-12-29T00:46:50;8.30;99.90
17202;DHT22;8717;53.588;10.176;2023-12-29T00:49:17;8.30;99.90
17202;DHT22;8717;53.588;10.176;2023-12-29T00:51:47;8.30;99.90
17202;DHT22;8717;53.588;10.176;2023-12-29T00:54:14;8.30;99.90
17202;DHT22;8717;53.588;10.176;2023-12-29T00:56:42;8.30;99.90
17202;DHT22;8717;53.588;10.176;2023-12-29T00:59:14;8.30;99.90
17202;DHT22;8717;53.588;10.176;2023-12-29T01:01:41;8.30;99.90
17202;DHT22;8717;53.588;10.176;2023-12-29T01:04:10;8.30;99.90
17202;DHT22;8717;53.588;10.176;2023-12-29T01:06:36;8.30;99.90
17202;DHT22;8717;53.588;10.176;2023-12-29T01:09:06;8.20;99.90
17202;DHT22;8717;53.588;10.176;2023-12-29T01:11:33;8.30;99.90
17202;DHT22;8717;53.588;10.176;2023-12-29T01:14:00;8.30;99.90
17202;DHT22;8717;53.588;10.176;2023-12-29T01:16:27;8.30;99.90
17202;DHT22;8717;53.588;10.176;2023-12-29T01:18:54;8.30;99.90
17202;DHT22;8717;53.588;10.176;2023-12-29T01:21:21;8.30;99.90
17202;DHT22;8717;53.588;10.176;2023-12-29T01:23:49;8.40;99.90
17202;DHT22;8717;53.588;10.176;2023-12-29T01:26:17;8.40;99.90
17202;DHT22;8717;53.588;10.176;2023-12-29T01:28:44;8.40;99.90
17202;DHT22;8717;53.588;10.176;2023-12-29T01:31:11;8.50;99.90
17202;DHT22;8717;53.588;10.176;2023-12-29T01:33:39;8.40;99.90
17202;DHT22;8717;53.588;10.176;2023-12-29T01:36:06;8.50;99.90
17202;DHT22;8717;53.588;10.176;2023-12-29T01:38:33;8.50;99.90
17202;DHT22;8717;53.588;10.176;2023-12-29T01:41:01;8.40;99.90
17202;DHT22;8717;53.588;10.176;2023-12-29T01:43:30;8.50;99.90
17202;DHT22;8717;53.588;10.176;2023-12-29T01:45:57;8.50;99.90
17202;DHT22;8717;53.588;10.176;2023-12-29T01:48:24;8.50;99.90
17202;DHT22;8717;53.588;10.176;2023-12-29T01:50:52;8.50;99.90
17202;DHT22;8717;53.588;10.176;2023-12-29T01:53:21;8.40;99.90
17202;DHT22;8717;53.588;10.176;2023-12-29T01:55:49;8.40;99.90
17202;DHT22;8717;53.588;10.176;2023-12-29T01:58:16;8.40;99.90
17202;DHT22;8717;53.588;10.176;2023-12-29T02:00:44;8.40;99.90
17202;DHT22;8717;53.588;10.176;2023-12-29T02:03:11;8.40;99.90
17202;DHT22;8717;53.588;10.176;2023-12-29T02:05:38;8.50;99.90
17202;DHT22;8717;53.588;10.176;2023-12-29T02:08:07;8.40;99.90
17202;DHT22;8717;53.588;10.176;2023-12-29T02:10:35;8.40;99.90
17202;DHT22;8717;53.588;10.176;2023-12-29T02:13:03;8.40;99.90
17202;DHT22;8717;53.588;10.176;2023-12-29T02:15:30;8.40;99.90
17202;DHT22;8717;53.588;10.176;2023-12-29T02:18:02;8.40;99.90
17202;DHT22;8717;53.588;10.176;2023-12-29T02:20:29;8.40;99.90
17202;DHT22;8717;53.588;10.176;2023-12-29T02:22:56;8.50;99.90
17202;DHT22;8717;53.588;10.176;2023-12-29T02:25:24;8.50;99.90
17202;DHT22;8717;53.588;10.176;2023-12-29T02:27:55;8.50;99.90
17202;DHT22;8717;53.588;10.176;2023-12-29T02:30:27;8.50;99.90
17202;DHT22;8717;53.588;10.176;2023-12-29T02:32:59;8.50;99.90
17202;DHT22;8717;53.588;10.176;2023-12-29T02:35:28;8.50;99.90
17202;DHT22;8717;53.588;10.176;2023-12-29T02:37:58;8.60;99.90
17202;DHT22;8717;53.588;10.176;2023-12-29T02:40:26;8.50;99.90
17202;DHT22;8717;53.588;10.176;2023-12-29T02:42:53;8.60;99.90
17202;DHT22;8717;53.588;10.176;2023-12-29T02:45:20;8.60;99.90
17202;DHT22;8717;53.588;10.176;2023-12-29T02:47:47;8.60;99.90
17202;DHT22;8717;53.588;10.176;2023-12-29T02:50:14;8.60;99.90
17202;DHT22;8717;53.588;10.176;2023-12-29T02:52:41;8.60;99.90
17202;DHT22;8717;53.588;10.176;2023-12-29T02:55:08;8.60;99.90
17202;DHT22;8717;53.588;10.176;2023-12-29T02:57:35;8.60;99.90
17202;DHT22;8717;53.588;10.176;2023-12-29T03:00:02;8.60;99.90
17202;DHT22;8717;53.588;10.176;2023-12-29T03:02:29;8.60;99.90
17202;DHT22;8717;53.588;10.176;2023-12-29T03:04:56;8.70;99.90
17202;DHT22;8717;53.588;10.176;2023-12-29T03:07:23;8.70;99.90
17202;DHT22;8717;53.588;10.176;2023-12-29T03:09:49;8.70;99.90
17202;DHT22;8717;53.588;10.176;2023-12-29T03:12:17;8.70;99.90
17202;DHT22;8717;53.588;10.176;2023-12-29T03:14:45;8.70;99.90
17202;DHT22;8717;53.588;10.176;2023-12-29T03:17:13;8.70;99.90
17202;DHT22;8717;53.588;10.176;2023-12-29T03:19:40;8.70;99.90
17202;DHT22;8717;53.588;10.176;2023-12-29T03:22:06;8.70;99.90
17202;DHT22;8717;53.588;10.176;2023-12-29T03:24:34;8.70;99.90
17202;DHT22;8717;53.588;10.176;2023-12-29T03:27:01;8.80;99.90
17202;DHT22;8717;53.588;10.176;2023-12-29T03:29:28;8.80;99.90
17202;DHT22;8717;53.588;10.176;2023-12-29T03:31:56;8.70;99.90
17202;DHT22;8717;53.588;10.176;2023-12-29T03:34:23;8.70;99.90
17202;DHT22;8717;53.588;10.176;2023-12-29T03:36:49;8.70;99.90
17202;DHT22;8717;53.588;10.176;2023-12-29T03:39:17;8.60;99.90
17202;DHT22;8717;53.588;10.176;2023-12-29T03:41:44;8.60;99.90
17202;DHT22;8717;53.588;10.176;2023-12-29T03:44:11;8.50;99.90
17202;DHT22;8717;53.588;10.176;2023-12-29T03:46:39;8.50;99.90
17202;DHT22;8717;53.588;10.176;2023-12-29T03:49:07;8.40;99.90
17202;DHT22;8717;53.588;10.176;2023-12-29T03:51:34;8.40;99.90
17202;DHT22;8717;53.588;10.176;2023-12-29T03:54:01;8.40;99.90
17202;DHT22;8717;53.588;10.176;2023-12-29T03:56:29;8.30;99.90
17202;DHT22;8717;53.588;10.176;2023-12-29T03:58:55;8.30;99.90
17202;DHT22;8717;53.588;10.176;2023-12-29T04:01:23;8.30;99.90
17202;DHT22;8717;53.588;10.176;2023-12-29T04:03:50;8.30;99.90
17202;DHT22;8717;53.588;10.176;2023-12-29T04:06:19;8.20;99.90
17202;DHT22;8717;53.588;10.176;2023-12-29T04:08:46;8.30;99.90
17202;DHT22;8717;53.588;10.176;2023-12-29T04:11:13;8.30;99.90
17202;DHT22;8717;53.588;10.176;2023-12-29T04:13:40;8.30;99.90
17202;DHT22;8717;53.588;10.176;2023-12-29T04:16:07;8.30;99.90
17202;DHT22;8717;53.588;10.176;2023-12-29T04:18:34;8.30;99.90
17202;DHT22;8717;53.588;10.176;2023-12-29T04:21:01;8.20;99.90
17202;DHT22;8717;53.588;10.176;2023-12-29T04:23:29;8.20;99.90
17202;DHT22;8717;53.588;10.176;2023-12-29T04:25:56;8.10;99.90
17202;DHT22;8717;53.588;10.176;2023-12-29T04:28:23;8.00;99.90
17202;DHT22;8717;53.588;10.176;2023-12-29T04:30:50;7.90;99.90
17202;DHT22;8717;53.588;10.176;2023-12-29T04:33:17;7.80;99.90
17202;DHT22;8717;53.588;10.176;2023-12-29T04:35:44;7.60;99.90
17202;DHT22;8717;53.588;10.176;2023-12-29T04:38:11;7.50;99.90
17202;DHT22;8717;53.588;10.176;2023-12-29T04:40:39;7.40;99.90
17202;DHT22;8717;53.588;10.176;2023-12-29T04:43:06;7.30;99.90
17202;DHT22;8717;53.588;10.176;2023-12-29T04:45:33;7.10;99.90
17202;DHT22;8717;53.588;10.176;2023-12-29T04:48:00;7.00;99.90
17202;DHT22;8717;53.588;10.176;2023-12-29T04:50:27;6.90;99.90
17202;DHT22;8717;53.588;10.176;2023-12-29T04:52:54;6.80;99.90
17202;DHT22;8717;53.588;10.176;2023-12-29T04:55:20;6.70;99.90
17202;DHT22;8717;53.588;10.176;2023-12-29T04:57:49;6.60;99.90
17202;DHT22;8717;53.588;10.176;2023-12-29T05:00:16;6.50;99.90
17202;DHT22;8717;53.588;10.176;2023-12-29T05:02:43;6.40;99.90
17202;DHT22;8717;53.588;10.176;2023-12-29T05:05:10;6.40;99.90
17202;DHT22;8717;53.588;10.176;2023-12-29T05:07:37;6.30;99.90
17202;DHT22;8717;53.588;10.176;2023-12-29T05:10:05;6.20;99.90
17202;DHT22;8717;53.588;10.176;2023-12-29T05:12:31;6.10;99.90
17202;DHT22;8717;53.588;10.176;2023-12-29T05:15:00;6.10;99.90
17202;DHT22;8717;53.588;10.176;2023-12-29T05:17:26;6.00;99.90
17202;DHT22;8717;53.588;10.176;2023-12-29T05:19:53;6.00;99.90
17202;DHT22;8717;53.588;10.176;2023-12-29T05:22:20;5.90;99.90
17202;DHT22;8717;53.588;10.176;2023-12-29T05:24:46;5.90;99.90
17202;DHT22;8717;53.588;10.176;2023-12-29T05:27:13;5.90;99.90
17202;DHT22;8717;53.588;10.176;2023-12-29T05:29:40;6.00;99.90
17202;DHT22;8717;53.588;10.176;2023-12-29T05:32:08;6.00;99.90
17202;DHT22;8717;53.588;10.176;2023-12-29T05:34:35;6.00;99.90
17202;DHT22;8717;53.588;10.176;2023-12-29T05:37:02;6.00;99.90
17202;DHT22;8717;53.588;10.176;2023-12-29T05:39:29;6.00;99.90
17202;DHT22;8717;53.588;10.176;2023-12-29T05:41:56;6.00;99.90
17202;DHT22;8717;53.588;10.176;2023-12-29T05:44:25;6.10;99.90
17202;DHT22;8717;53.588;10.176;2023-12-29T05:46:52;6.00;99.90
17202;DHT22;8717;53.588;10.176;2023-12-29T05:49:25;6.00;99.90
17202;DHT22;8717;53.588;10.176;2023-12-29T05:51:52;6.00;99.90
17202;DHT22;8717;53.588;10.176;2023-12-29T05:54:19;6.00;99.90
17202;DHT22;8717;53.588;10.176;2023-12-29T05:56:45;6.00;99.90
17202;DHT22;8717;53.588;10.176;2023-12-29T05:59:12;6.00;99.90
17202;DHT22;8717;53.588;10.176;2023-12-29T06:01:39;6.00;99.90
17202;DHT22;8717;53.588;10.176;2023-12-29T06:04:05;6.00;99.90
17202;DHT22;8717;53.588;10.176;2023-12-29T06:06:34;6.00;99.90
17202;DHT22;8717;53.588;10.176;2023-12-29T06:09:00;6.10;99.90
17202;DHT22;8717;53.588;10.176;2023-12-29T06:11:27;6.10;99.90
17202;DHT22;8717;53.588;10.176;2023-12-29T06:13:54;6.10;99.90
17202;DHT22;8717;53.588;10.176;2023-12-29T06:16:21;6.20;99.90
17202;DHT22;8717;53.588;10.176;2023-12-29T06:18:50;6.20;99.90
17202;DHT22;8717;53.588;10.176;2023-12-29T06:21:17;6.30;99.90
17202;DHT22;8717;53.588;10.176;2023-12-29T06:23:46;6.30;99.90
17202;DHT22;8717;53.588;10.176;2023-12-29T06:26:14;6.40;99.90
17202;DHT22;8717;53.588;10.176;2023-12-29T06:28:42;6.40;99.90
17202;DHT22;8717;53.588;10.176;2023-12-29T06:31:09;6.40;99.90
17202;DHT22;8717;53.588;10.176;2023-12-29T06:33:40;6.50;99.90
17202;DHT22;8717;53.588;10.176;2023-12-29T06:36:07;6.50;99.90
17202;DHT22;8717;53.588;10.176;2023-12-29T06:38:34;6.60;99.90
17202;DHT22;8717;53.588;10.176;2023-12-29T06:41:04;6.60;99.90
17202;DHT22;8717;53.588;10.176;2023-12-29T06:43:31;6.60;99.90
17202;DHT22;8717;53.588;10.176;2023-12-29T06:45:58;6.70;99.90
17202;DHT22;8717;53.588;10.176;2023-12-29T06:48:25;6.60;99.90
17202;DHT22;8717;53.588;10.176;2023-12-29T06:50:52;6.60;99.90
17202;DHT22;8717;53.588;10.176;2023-12-29T06:53:19;6.60;99.90
17202;DHT22;8717;53.588;10.176;2023-12-29T06:55:45;6.60;99.90
17202;DHT22;8717;53.588;10.176;2023-12-29T06:58:14;6.70;99.90
17202;DHT22;8717;53.588;10.176;2023-12-29T07:00:41;6.60;99.90
17202;DHT22;8717;53.588;10.176;2023-12-29T07:03:08;6.60;99.90
17202;DHT22;8717;53.588;10.176;2023-12-29T07:05:35;6.60;99.90
17202;DHT22;8717;53.588;10.176;2023-12-29T07:08:02;6.60;99.90
17202;DHT22;8717;53.588;10.176;2023-12-29T07:10:28;6.60;99.90
17202;DHT22;8717;53.588;10.176;2023-12-29T07:12:55;6.60;99.90
17202;DHT22;8717;53.588;10.176;2023-12-29T07:15:23;6.60;99.90
17202;DHT22;8717;53.588;10.176;2023-12-29T07:17:50;6.60;99.90
17202;DHT22;8717;53.588;10.176;2023-12-29T07:20:17;6.60;99.90
17202;DHT22;8717;53.588;10.176;2023-12-29T07:22:43;6.70;99.90
17202;DHT22;8717;53.588;10.176;2023-12-29T07:25:10;6.70;99.90
17202;DHT22;8717;53.588;10.176;2023-12-29T07:27:38;6.70;99.90
17202;DHT22;8717;53.588;10.176;2023-12-29T07:30:06;6.70;99.90
17202;DHT22;8717;53.588;10.176;2023-12-29T07:32:34;6.80;99.90
17202;DHT22;8717;53.588;10.176;2023-12-29T07:35:01;6.80;99.90
17202;DHT22;8717;53.588;10.176;2023-12-29T07:37:28;6.80;99.90
17202;DHT22;8717;53.588;10.176;2023-12-29T07:39:55;6.80;99.90
17202;DHT22;8717;53.588;10.176;2023-12-29T07:42:22;6.80;99.90
17202;DHT22;8717;53.588;10.176;2023-12-29T07:44:48;6.90;99.90
17202;DHT22;8717;53.588;10.176;2023-12-29T07:47:16;6.90;99.90
17202;DHT22;8717;53.588;10.176;2023-12-29T07:49:45;6.90;99.90
17202;DHT22;8717;53.588;10.176;2023-12-29T07:52:11;6.90;99.90
17202;DHT22;8717;53.588;10.176;2023-12-29T07:54:38;7.00;99.90
17202;DHT22;8717;53.588;10.176;2023-12-29T07:57:05;7.00;99.90
17202;DHT22;8717;53.588;10.176;2023-12-29T07:59:32;7.00;99.90
17202;DHT22;8717;53.588;10.176;2023-12-29T08:01:59;7.00;99.90
17202;DHT22;8717;53.588;10.176;2023-12-29T08:04:26;7.00;99.90
17202;DHT22;8717;53.588;10.176;2023-12-29T08:06:54;7.10;99.90
17202;DHT22;8717;53.588;10.176;2023-12-29T08:09:20;7.10;99.90
17202;DHT22;8717;53.588;10.176;2023-12-29T08:11:47;7.10;99.90
17202;DHT22;8717;53.588;10.176;2023-12-29T08:14:14;7.10;99.90
17202;DHT22;8717;53.588;10.176;2023-12-29T08:16:41;7.20;99.90
17202;DHT22;8717;53.588;10.176;2023-12-29T08:19:07;7.20;99.90
17202;DHT22;8717;53.588;10.176;2023-12-29T08:21:35;7.30;99.90
17202;DHT22;8717;53.588;10.176;2023-12-29T08:24:04;7.30;99.90
17202;DHT22;8717;53.588;10.176;2023-12-29T08:26:31;7.40;99.90
17202;DHT22;8717;53.588;10.176;2023-12-29T08:28:57;7.40;99.90
17202;DHT22;8717;53.588;10.176;2023-12-29T08:31:24;7.40;99.90
17202;DHT22;8717;53.588;10.176;2023-12-29T08:33:52;7.40;99.90
17202;DHT22;8717;53.588;10.176;2023-12-29T08:36:20;7.40;99.90
17202;DHT22;8717;53.588;10.176;2023-12-29T08:38:47;7.40;99.90
17202;DHT22;8717;53.588;10.176;2023-12-29T08:41:15;7.40;99.90
17202;DHT22;8717;53.588;10.176;2023-12-29T08:43:43;7.50;99.90
17202;DHT22;8717;53.588;10.176;2023-12-29T08:46:10;7.50;99.90
17202;DHT22;8717;53.588;10.176;2023-12-29T08:48:37;7.50;99.90
17202;DHT22;8717;53.588;10.176;2023-12-29T08:51:04;7.50;99.90
17202;DHT22;8717;53.588;10.176;2023-12-29T08:53:31;7.60;99.90
17202;DHT22;8717;53.588;10.176;2023-12-29T08:56:01;7.60;99.90
17202;DHT22;8717;53.588;10.176;2023-12-29T08:58:31;7.70;99.90
17202;DHT22;8717;53.588;10.176;2023-12-29T09:00:57;7.80;99.90
17202;DHT22;8717;53.588;10.176;2023-12-29T09:03:24;7.80;99.90
17202;DHT22;8717;53.588;10.176;2023-12-29T09:05:51;7.90;99.90
17202;DHT22;8717;53.588;10.176;2023-12-29T09:08:18;8.00;99.90
17202;DHT22;8717;53.588;10.176;2023-12-29T09:10:44;8.00;99.90
17202;DHT22;8717;53.588;10.176;2023-12-29T09:13:11;8.10;99.90
17202;DHT22;8717;53.588;10.176;2023-12-29T09:15:39;8.20;99.90
17202;DHT22;8717;53.588;10.176;2023-12-29T09:18:06;8.20;99.90
17202;DHT22;8717;53.588;10.176;2023-12-29T09:20:33;8.20;99.90
17202;DHT22;8717;53.588;10.176;2023-12-29T09:22:59;8.20;99.90
17202;DHT22;8717;53.588;10.176;2023-12-29T09:25:26;8.20;99.90
17202;DHT22;8717;53.588;10.176;2023-12-29T09:27:53;8.10;99.90
17202;DHT22;8717;53.588;10.176;2023-12-29T09:30:20;7.90;99.90
17202;DHT22;8717;53.588;10.176;2023-12-29T09:32:48;7.70;99.90
17202;DHT22;8717;53.588;10.176;2023-12-29T09:35:14;7.60;99.90
17202;DHT22;8717;53.588;10.176;2023-12-29T09:37:42;7.40;99.90
17202;DHT22;8717;53.588;10.176;2023-12-29T09:40:10;7.20;99.90
17202;DHT22;8717;53.588;10.176;2023-12-29T09:42:37;7.10;99.90
17202;DHT22;8717;53.588;10.176;2023-12-29T09:45:09;7.00;99.90
17202;DHT22;8717;53.588;10.176;2023-12-29T09:47:38;6.90;99.90
17202;DHT22;8717;53.588;10.176;2023-12-29T09:50:09;6.80;99.90
17202;DHT22;8717;53.588;10.176;2023-12-29T09:52:37;6.80;99.90
17202;DHT22;8717;53.588;10.176;2023-12-29T09:55:08;6.70;99.90
17202;DHT22;8717;53.588;10.176;2023-12-29T09:57:36;6.70;99.90
17202;DHT22;8717;53.588;10.176;2023-12-29T10:00:03;6.70;99.90
17202;DHT22;8717;53.588;10.176;2023-12-29T10:02:36;6.70;99.90
17202;DHT22;8717;53.588;10.176;2023-12-29T10:05:04;6.70;99.90
17202;DHT22;8717;53.588;10.176;2023-12-29T10:07:36;6.70;99.90
17202;DHT22;8717;53.588;10.176;2023-12-29T10:10:04;6.70;99.90
17202;DHT22;8717;53.588;10.176;2023-12-29T10:12:33;6.70;99.90
17202;DHT22;8717;53.588;10.176;2023-12-29T10:15:05;6.80;99.90
17202;DHT22;8717;53.588;10.176;2023-12-29T10:17:46;6.80;99.90
17202;DHT22;8717;53.588;10.176;2023-12-29T10:20:30;6.90;99.90
17202;DHT22;8717;53.588;10.176;2023-12-29T10:23:05;6.90;99.90
17202;DHT22;8717;53.588;10.176;2023-12-29T10:25:34;7.00;99.90
17202;DHT22;8717;53.588;10.176;2023-12-29T10:28:01;7.00;99.90
17202;DHT22;8717;53.588;10.176;2023-12-29T10:30:28;7.00;99.90
17202;DHT22;8717;53.588;10.176;2023-12-29T10:33:00;7.00;99.90
17202;DHT22;8717;53.588;10.176;2023-12-29T10:35:29;7.00;99.90
17202;DHT22;8717;53.588;10.176;2023-12-29T10:38:09;7.00;99.90
17202;DHT22;8717;53.588;10.176;2023-12-29T10:40:37;7.10;99.90
17202;DHT22;8717;53.588;10.176;2023-12-29T10:43:03;7.10;99.90
17202;DHT22;8717;53.588;10.176;2023-12-29T10:45:33;7.20;99.90
17202;DHT22;8717;53.588;10.176;2023-12-29T10:48:02;7.20;99.90
17202;DHT22;8717;53.588;10.176;2023-12-29T10:50:28;7.20;99.90
17202;DHT22;8717;53.588;10.176;2023-12-29T10:53:11;7.30;99.90
17202;DHT22;8717;53.588;10.176;2023-12-29T10:55:39;7.30;99.90
17202;DHT22;8717;53.588;10.176;2023-12-29T10:58:06;7.30;99.90
17202;DHT22;8717;53.588;10.176;2023-12-29T11:00:36;7.40;99.90
17202;DHT22;8717;53.588;10.176;2023-12-29T11:03:05;7.40;99.90
17202;DHT22;8717;53.588;10.176;2023-12-29T11:05:32;7.40;99.90
17202;DHT22;8717;53.588;10.176;2023-12-29T11:08:00;7.40;99.90
17202;DHT22;8717;53.588;10.176;2023-12-29T11:10:30;7.40;99.90
17202;DHT22;8717;53.588;10.176;2023-12-29T11:12:57;7.40;99.90
17202;DHT22;8717;53.588;10.176;2023-12-29T11:15:25;7.40;99.90
17202;DHT22;8717;53.588;10.176;2023-12-29T11:17:56;7.40;99.90
17202;DHT22;8717;53.588;10.176;2023-12-29T11:20:23;7.50;99.90
17202;DHT22;8717;53.588;10.176;2023-12-29T11:22:52;7.50;99.90
17202;DHT22;8717;53.588;10.176;2023-12-29T11:25:19;7.50;99.90
17202;DHT22;8717;53.588;10.176;2023-12-29T11:27:48;7.50;99.90
17202;DHT22;8717;53.588;10.176;2023-12-29T11:30:16;7.60;99.90
17202;DHT22;8717;53.588;10.176;2023-12-29T11:32:47;7.60;99.90
17202;DHT22;8717;53.588;10.176;2023-12-29T11:35:20;7.60;99.90
17202;DHT22;8717;53.588;10.176;2023-12-29T11:38:23;7.70;99.90
17202;DHT22;8717;53.588;10.176;2023-12-29T11:40:57;7.70;99.90
17202;DHT22;8717;53.588;10.176;2023-12-29T11:43:26;7.80;99.90
17202;DHT22;8717;53.588;10.176;2023-12-29T11:45:53;7.90;99.90
17202;DHT22;8717;53.588;10.176;2023-12-29T11:48:53;7.90;99.90
17202;DHT22;8717;53.588;10.176;2023-12-29T11:51:31;7.90;99.90
17202;DHT22;8717;53.588;10.176;2023-12-29T11:53:58;7.90;99.90
17202;DHT22;8717;53.588;10.176;2023-12-29T11:56:31;7.90;99.90
17202;DHT22;8717;53.588;10.176;2023-12-29T11:59:15;8.00;99.90
17202;DHT22;8717;53.588;10.176;2023-12-29T12:01:42;8.00;99.90
17202;DHT22;8717;53.588;10.176;2023-12-29T12:04:35;8.00;99.90
17202;DHT22;8717;53.588;10.176;2023-12-29T12:07:03;8.00;99.90
17202;DHT22;8717;53.588;10.176;2023-12-29T12:09:31;8.00;99.90
17202;DHT22;8717;53.588;10.176;2023-12-29T12:12:00;8.00;99.90
17202;DHT22;8717;53.588;10.176;2023-12-29T12:14:45;7.90;99.90
17202;DHT22;8717;53.588;10.176;2023-12-29T12:17:13;7.90;99.90
17202;DHT22;8717;53.588;10.176;2023-12-29T12:19:55;8.00;99.90
17202;DHT22;8717;53.588;10.176;2023-12-29T12:22:24;8.00;99.90
17202;DHT22;8717;53.588;10.176;2023-12-29T12:24:55;8.00;99.90
17202;DHT22;8717;53.588;10.176;2023-12-29T12:27:22;8.00;99.90
17202;DHT22;8717;53.588;10.176;2023-12-29T12:29:53;8.00;99.90
17202;DHT22;8717;53.588;10.176;2023-12-29T12:32:23;8.10;99.90
17202;DHT22;8717;53.588;10.176;2023-12-29T12:34:50;8.10;99.90
17202;DHT22;8717;53.588;10.176;2023-12-29T12:37:21;8.10;99.90
17202;DHT22;8717;53.588;10.176;2023-12-29T12:39:48;8.20;99.90
17202;DHT22;8717;53.588;10.176;2023-12-29T12:42:15;8.20;99.90
17202;DHT22;8717;53.588;10.176;2023-12-29T12:44:47;8.30;99.90
17202;DHT22;8717;53.588;10.176;2023-12-29T12:47:19;8.30;99.90
17202;DHT22;8717;53.588;10.176;2023-12-29T12:49:49;8.40;99.90
17202;DHT22;8717;53.588;10.176;2023-12-29T12:52:16;8.40;99.90
17202;DHT22;8717;53.588;10.176;2023-12-29T12:54:43;8.50;99.90
17202;DHT22;8717;53.588;10.176;2023-12-29T12:57:10;8.50;99.90
17202;DHT22;8717;53.588;10.176;2023-12-29T12:59:37;8.50;99.90
17202;DHT22;8717;53.588;10.176;2023-12-29T13:02:04;8.50;99.90
17202;DHT22;8717;53.588;10.176;2023-12-29T13:04:33;8.50;99.90
17202;DHT22;8717;53.588;10.176;2023-12-29T13:07:00;8.40;99.90
17202;DHT22;8717;53.588;10.176;2023-12-29T13:09:27;8.40;99.90
17202;DHT22;8717;53.588;10.176;2023-12-29T13:12:08;8.40;99.90
17202;DHT22;8717;53.588;10.176;2023-12-29T13:14:34;8.40;99.90
17202;DHT22;8717;53.588;10.176;2023-12-29T13:17:06;8.40;99.90
17202;DHT22;8717;53.588;10.176;2023-12-29T13:19:34;8.40;99.90
17202;DHT22;8717;53.588;10.176;2023-12-29T13:22:01;8.50;99.90
17202;DHT22;8717;53.588;10.176;2023-12-29T13:24:29;8.40;99.90
17202;DHT22;8717;53.588;10.176;2023-12-29T13:27:02;8.40;99.90
17202;DHT22;8717;53.588;10.176;2023-12-29T13:29:30;8.40;99.90
17202;DHT22;8717;53.588;10.176;2023-12-29T13:32:04;8.50;99.90
17202;DHT22;8717;53.588;10.176;2023-12-29T13:34:37;8.40;99.90
17202;DHT22;8717;53.588;10.176;2023-12-29T13:37:11;8.50;99.90
17202;DHT22;8717;53.588;10.176;2023-12-29T13:39:43;8.40;99.90
17202;DHT22;8717;53.588;10.176;2023-12-29T13:42:12;8.40;99.90
17202;DHT22;8717;53.588;10.176;2023-12-29T13:44:42;8.30;99.90
17202;DHT22;8717;53.588;10.176;2023-12-29T13:47:10;8.30;99.90
17202;DHT22;8717;53.588;10.176;2023-12-29T13:49:38;8.20;99.90
17202;DHT22;8717;53.588;10.176;2023-12-29T13:52:06;8.10;99.90
17202;DHT22;8717;53.588;10.176;2023-12-29T13:54:40;8.10;99.90
17202;DHT22;8717;53.588;10.176;2023-12-29T13:57:08;8.00;99.90
17202;DHT22;8717;53.588;10.176;2023-12-29T13:59:35;7.90;99.90
17202;DHT22;8717;53.588;10.176;2023-12-29T14:02:19;7.90;99.90
17202;DHT22;8717;53.588;10.176;2023-12-29T14:04:47;7.70;99.90
17202;DHT22;8717;53.588;10.176;2023-12-29T14:07:15;7.60;99.90
17202;DHT22;8717;53.588;10.176;2023-12-29T14:09:46;7.60;99.90
17202;DHT22;8717;53.588;10.176;2023-12-29T14:12:13;7.60;99.90
17202;DHT22;8717;53.588;10.176;2023-12-29T14:14:39;7.50;99.90
17202;DHT22;8717;53.588;10.176;2023-12-29T14:17:07;7.40;99.90
17202;DHT22;8717;53.588;10.176;2023-12-29T14:19:36;7.30;99.90
17202;DHT22;8717;53.588;10.176;2023-12-29T14:22:05;7.30;99.90
17202;DHT22;8717;53.588;10.176;2023-12-29T14:24:32;7.20;99.90
17202;DHT22;8717;53.588;10.176;2023-12-29T14:26:58;7.20;99.90
17202;DHT22;8717;53.588;10.176;2023-12-29T14:29:26;7.10;99.90
17202;DHT22;8717;53.588;10.176;2023-12-29T14:31:52;7.10;99.90
17202;DHT22;8717;53.588;10.176;2023-12-29T14:34:21;7.00;99.90
17202;DHT22;8717;53.588;10.176;2023-12-29T14:36:48;7.00;99.90
17202;DHT22;8717;53.588;10.176;2023-12-29T14:39:16;6.90;99.90
17202;DHT22;8717;53.588;10.176;2023-12-29T14:41:43;6.90;99.90
17202;DHT22;8717;53.588;10.176;2023-12-29T14:44:10;6.90;99.90
17202;DHT22;8717;53.588;10.176;2023-12-29T14:46:38;6.90;99.90
17202;DHT22;8717;53.588;10.176;2023-12-29T14:49:05;6.90;99.90
17202;DHT22;8717;53.588;10.176;2023-12-29T14:51:32;6.90;99.90
17202;DHT22;8717;53.588;10.176;2023-12-29T14:53:59;6.90;99.90
17202;DHT22;8717;53.588;10.176;2023-12-29T14:56:30;6.90;99.90
17202;DHT22;8717;53.588;10.176;2023-12-29T14:58:56;6.90;99.90
17202;DHT22;8717;53.588;10.176;2023-12-29T15:01:23;6.90;99.90
17202;DHT22;8717;53.588;10.176;2023-12-29T15:03:52;6.90;99.90
17202;DHT22;8717;53.588;10.176;2023-12-29T15:06:18;6.90;99.90
17202;DHT22;8717;53.588;10.176;2023-12-29T15:08:45;6.90;99.90
17202;DHT22;8717;53.588;10.176;2023-12-29T15:11:12;6.90;99.90
17202;DHT22;8717;53.588;10.176;2023-12-29T15:13:40;6.90;99.90
17202;DHT22;8717;53.588;10.176;2023-12-29T15:16:08;6.90;99.90
17202;DHT22;8717;53.588;10.176;2023-12-29T15:22:42;6.90;99.90
17202;DHT22;8717;53.588;10.176;2023-12-29T15:29:51;6.80;99.90
17202;DHT22;8717;53.588;10.176;2023-12-29T15:32:18;6.80;99.90
17202;DHT22;8717;53.588;10.176;2023-12-29T15:34:45;6.80;99.90
17202;DHT22;8717;53.588;10.176;2023-12-29T15:37:11;6.80;99.90
17202;DHT22;8717;53.588;10.176;2023-12-29T15:39:40;6.90;99.90
17202;DHT22;8717;53.588;10.176;2023-12-29T15:42:07;6.90;99.90
17202;DHT22;8717;53.588;10.176;2023-12-29T15:44:34;6.90;99.90
17202;DHT22;8717;53.588;10.176;2023-12-29T15:47:08;6.90;99.90
17202;DHT22;8717;53.588;10.176;2023-12-29T15:49:36;7.00;99.90
17202;DHT22;8717;53.588;10.176;2023-12-29T15:52:26;7.00;99.90
17202;DHT22;8717;53.588;10.176;2023-12-29T15:55:00;7.00;99.90
17202;DHT22;8717;53.588;10.176;2023-12-29T15:57:28;7.10;99.90
17202;DHT22;8717;53.588;10.176;2023-12-29T15:59:58;7.10;99.90